sensor_id;sensor_type;location;lat;lon;timestamp;temperature;humidity
7720;DHT22;3902;49.474;8.616;2023-08-08T00:02:05;15.70;99.90
7720;DHT22;3902;49.474;8.616;2023-08-08T00:04:31;15.70;99.90
7720;DHT22;3902;49.474;8.616;2023-08-08T00:06:56;15.70;99.90
7720;DHT22;3902;49.474;8.616;2023-08-08T00:09:22;15.70;99.90
7720;DHT22;3902;49.474;8.616;2023-08-08T00:11:48;15.70;99.90
7720;DHT22;3902;49.474;8.616;2023-08-08T00:14:14;15.70;99.90
7720;DHT22;3902;49.474;8.616;2023-08-08T00:16:39;15.70;99.90
7720;DHT22;3902;49.474;8.616;2023-08-08T00:19:05;15.70;99.90
7720;DHT22;3902;49.474;8.616;2023-08-08T00:21:30;15.70;99.90
7720;DHT22;3902;49.474;8.616;2023-08-08T00:23:56;15.70;99.90
7720;DHT22;3902;49.474;8.616;2023-08-08T00:26:21;15.70;99.90
7720;DHT22;3902;49.474;8.616;2023-08-08T00:28:47;15.70;99.90
7720;DHT22;3902;49.474;8.616;2023-08-08T00:31:12;15.70;99.90
7720;DHT22;3902;49.474;8.616;2023-08-08T00:33:38;15.70;99.90
7720;DHT22;3902;49.474;8.616;2023-08-08T00:36:04;15.70;99.90
7720;DHT22;3902;49.474;8.616;2023-08-08T00:38:29;15.70;99.90
7720;DHT22;3902;49.474;8.616;2023-08-08T00:40:55;15.60;99.90
7720;DHT22;3902;49.474;8.616;2023-08-08T00:43:20;15.70;99.90
7720;DHT22;3902;49.474;8.616;2023-08-08T00:45:46;15.70;99.90
7720;DHT22;3902;49.474;8.616;2023-08-08T00:48:13;15.60;99.90
7720;DHT22;3902;49.474;8.616;2023-08-08T00:50:42;15.60;99.90
7720;DHT22;3902;49.474;8.616;2023-08-08T00:53:08;15.60;99.90
7720;DHT22;3902;49.474;8.616;2023-08-08T00:55:34;15.60;99.90
7720;DHT22;3902;49.474;8.616;2023-08-08T00:57:59;15.60;99.90
7720;DHT22;3902;49.474;8.616;2023-08-08T01:00:25;15.50;99.90
7720;DHT22;3902;49.474;8.616;2023-08-08T01:02:51;15.50;99.90
7720;DHT22;3902;49.474;8.616;2023-08-08T01:05:16;15.50;99.90
7720;DHT22;3902;49.474;8.616;2023-08-08T01:07:55;15.50;99.90
7720;DHT22;3902;49.474;8.616;2023-08-08T01:10:26;15.50;99.90
7720;DHT22;3902;49.474;8.616;2023-08-08T01:12:56;15.50;99.90
7720;DHT22;3902;49.474;8.616;2023-08-08T01:15:24;15.50;99.90
7720;DHT22;3902;49.474;8.616;2023-08-08T01:17:51;15.50;99.90
7720;DHT22;3902;49.474;8.616;2023-08-08T01:20:17;15.40;99.90
7720;DHT22;3902;49.474;8.616;2023-08-08T01:22:50;15.40;99.90
7720;DHT22;3902;49.474;8.616;2023-08-08T01:25:21;15.40;99.90
7720;DHT22;3902;49.474;8.616;2023-08-08T01:27:48;15.40;99.90
7720;DHT22;3902;49.474;8.616;2023-08-08T01:30:13;15.40;99.90
7720;DHT22;3902;49.474;8.616;2023-08-08T01:32:39;15.40;99.90
7720;DHT22;3902;49.474;8.616;2023-08-08T01:35:05;15.30;99.90
7720;DHT22;3902;49.474;8.616;2023-08-08T01:37:36;15.30;99.90
7720;DHT22;3902;49.474;8.616;2023-08-08T01:40:05;15.30;99.90
7720;DHT22;3902;49.474;8.616;2023-08-08T01:42:32;15.30;99.90
7720;DHT22;3902;49.474;8.616;2023-08-08T01:44:57;15.20;99.90
7720;DHT22;3902;49.474;8.616;2023-08-08T01:47:24;15.30;99.90
7720;DHT22;3902;49.474;8.616;2023-08-08T01:49:49;15.30;99.90
7720;DHT22;3902;49.474;8.616;2023-08-08T01:52:15;15.20;99.90
7720;DHT22;3902;49.474;8.616;2023-08-08T01:54:40;15.20;99.90
7720;DHT22;3902;49.474;8.616;2023-08-08T01:57:07;15.20;99.90
7720;DHT22;3902;49.474;8.616;2023-08-08T01:59:33;15.20;99.90
7720;DHT22;3902;49.474;8.616;2023-08-08T02:01:58;15.10;99.90
7720;DHT22;3902;49.474;8.616;2023-08-08T02:04:24;15.10;99.90
7720;DHT22;3902;49.474;8.616;2023-08-08T02:06:49;15.10;99.90
7720;DHT22;3902;49.474;8.616;2023-08-08T02:09:15;15.10;99.90
7720;DHT22;3902;49.474;8.616;2023-08-08T02:11:41;15.10;99.90
7720;DHT22;3902;49.474;8.616;2023-08-08T02:14:07;15.00;99.90
7720;DHT22;3902;49.474;8.616;2023-08-08T02:16:32;15.00;99.90
7720;DHT22;3902;49.474;8.616;2023-08-08T02:18:58;15.00;99.90
7720;DHT22;3902;49.474;8.616;2023-08-08T02:21:23;14.90;99.90
7720;DHT22;3902;49.474;8.616;2023-08-08T02:23:49;14.90;99.90
7720;DHT22;3902;49.474;8.616;2023-08-08T02:26:14;14.90;99.90
7720;DHT22;3902;49.474;8.616;2023-08-08T02:28:40;14.90;99.90
7720;DHT22;3902;49.474;8.616;2023-08-08T02:31:06;14.90;99.90
7720;DHT22;3902;49.474;8.616;2023-08-08T02:33:31;14.90;99.90
7720;DHT22;3902;49.474;8.616;2023-08-08T02:35:57;14.80;99.90
7720;DHT22;3902;49.474;8.616;2023-08-08T02:38:22;14.90;99.90
7720;DHT22;3902;49.474;8.616;2023-08-08T02:40:48;14.80;99.90
7720;DHT22;3902;49.474;8.616;2023-08-08T02:43:13;14.80;99.90
7720;DHT22;3902;49.474;8.616;2023-08-08T02:45:39;14.80;99.90
7720;DHT22;3902;49.474;8.616;2023-08-08T02:48:05;14.80;99.90
7720;DHT22;3902;49.474;8.616;2023-08-08T02:50:31;14.80;99.90
7720;DHT22;3902;49.474;8.616;2023-08-08T02:52:56;14.80;99.90
7720;DHT22;3902;49.474;8.616;2023-08-08T02:55:22;14.80;99.90
7720;DHT22;3902;49.474;8.616;2023-08-08T02:57:47;14.80;99.90
7720;DHT22;3902;49.474;8.616;2023-08-08T03:00:13;14.80;99.90
7720;DHT22;3902;49.474;8.616;2023-08-08T03:02:38;14.80;99.90
7720;DHT22;3902;49.474;8.616;2023-08-08T03:05:04;14.80;99.90
7720;DHT22;3902;49.474;8.616;2023-08-08T03:07:31;14.80;99.90
7720;DHT22;3902;49.474;8.616;2023-08-08T03:09:56;14.80;99.90
7720;DHT22;3902;49.474;8.616;2023-08-08T03:12:22;14.80;99.90
7720;DHT22;3902;49.474;8.616;2023-08-08T03:14:47;14.80;99.90
7720;DHT22;3902;49.474;8.616;2023-08-08T03:17:13;14.90;99.90
7720;DHT22;3902;49.474;8.616;2023-08-08T03:19:38;14.90;99.90
7720;DHT22;3902;49.474;8.616;2023-08-08T03:22:04;14.90;99.90
7720;DHT22;3902;49.474;8.616;2023-08-08T03:24:29;14.90;99.90
7720;DHT22;3902;49.474;8.616;2023-08-08T03:26:55;14.90;99.90
7720;DHT22;3902;49.474;8.616;2023-08-08T03:29:20;14.90;99.90
7720;DHT22;3902;49.474;8.616;2023-08-08T03:31:46;14.90;99.90
7720;DHT22;3902;49.474;8.616;2023-08-08T03:34:12;14.90;99.90
7720;DHT22;3902;49.474;8.616;2023-08-08T03:36:37;14.90;99.90
7720;DHT22;3902;49.474;8.616;2023-08-08T03:39:03;14.80;99.90
7720;DHT22;3902;49.474;8.616;2023-08-08T03:41:29;14.80;99.90
7720;DHT22;3902;49.474;8.616;2023-08-08T03:43:55;14.80;99.90
7720;DHT22;3902;49.474;8.616;2023-08-08T03:46:21;14.80;99.90
7720;DHT22;3902;49.474;8.616;2023-08-08T03:48:47;14.80;99.90
7720;DHT22;3902;49.474;8.616;2023-08-08T03:51:12;14.80;99.90
7720;DHT22;3902;49.474;8.616;2023-08-08T03:53:38;14.80;99.90
7720;DHT22;3902;49.474;8.616;2023-08-08T03:56:03;14.80;99.90
7720;DHT22;3902;49.474;8.616;2023-08-08T03:58:29;14.80;99.90
7720;DHT22;3902;49.474;8.616;2023-08-08T04:00:54;14.80;99.90
7720;DHT22;3902;49.474;8.616;2023-08-08T04:03:20;14.80;99.90
7720;DHT22;3902;49.474;8.616;2023-08-08T04:05:46;14.70;99.90
7720;DHT22;3902;49.474;8.616;2023-08-08T04:08:15;14.70;99.90
7720;DHT22;3902;49.474;8.616;2023-08-08T04:10:41;14.70;99.90
7720;DHT22;3902;49.474;8.616;2023-08-08T04:13:06;14.70;99.90
7720;DHT22;3902;49.474;8.616;2023-08-08T04:15:32;14.70;99.90
7720;DHT22;3902;49.474;8.616;2023-08-08T04:17:57;14.70;99.90
7720;DHT22;3902;49.474;8.616;2023-08-08T04:20:23;14.60;99.90
7720;DHT22;3902;49.474;8.616;2023-08-08T04:22:49;14.60;99.90
7720;DHT22;3902;49.474;8.616;2023-08-08T04:25:15;14.70;99.90
7720;DHT22;3902;49.474;8.616;2023-08-08T04:27:40;14.70;99.90
7720;DHT22;3902;49.474;8.616;2023-08-08T04:30:07;14.60;99.90
7720;DHT22;3902;49.474;8.616;2023-08-08T04:32:32;14.70;99.90
7720;DHT22;3902;49.474;8.616;2023-08-08T04:34:58;14.70;99.90
7720;DHT22;3902;49.474;8.616;2023-08-08T04:37:23;14.60;99.90
7720;DHT22;3902;49.474;8.616;2023-08-08T04:39:49;14.60;99.90
7720;DHT22;3902;49.474;8.616;2023-08-08T04:42:14;14.60;99.90
7720;DHT22;3902;49.474;8.616;2023-08-08T04:44:40;14.60;99.90
7720;DHT22;3902;49.474;8.616;2023-08-08T04:47:05;14.60;99.90
7720;DHT22;3902;49.474;8.616;2023-08-08T04:49:31;14.70;99.90
7720;DHT22;3902;49.474;8.616;2023-08-08T04:51:56;14.60;99.90
7720;DHT22;3902;49.474;8.616;2023-08-08T04:54:22;14.60;99.90
7720;DHT22;3902;49.474;8.616;2023-08-08T04:56:47;14.60;99.90
7720;DHT22;3902;49.474;8.616;2023-08-08T04:59:13;14.60;99.90
7720;DHT22;3902;49.474;8.616;2023-08-08T05:01:38;14.60;99.90
7720;DHT22;3902;49.474;8.616;2023-08-08T05:04:04;14.70;99.90
7720;DHT22;3902;49.474;8.616;2023-08-08T05:06:30;14.70;99.90
7720;DHT22;3902;49.474;8.616;2023-08-08T05:08:56;14.70;99.90
7720;DHT22;3902;49.474;8.616;2023-08-08T05:11:22;14.70;99.90
7720;DHT22;3902;49.474;8.616;2023-08-08T05:13:48;14.70;99.90
7720;DHT22;3902;49.474;8.616;2023-08-08T05:16:13;14.70;99.90
7720;DHT22;3902;49.474;8.616;2023-08-08T05:18:39;14.70;99.90
7720;DHT22;3902;49.474;8.616;2023-08-08T05:21:04;14.80;99.90
7720;DHT22;3902;49.474;8.616;2023-08-08T05:23:30;14.80;99.90
7720;DHT22;3902;49.474;8.616;2023-08-08T05:25:55;14.80;99.90
7720;DHT22;3902;49.474;8.616;2023-08-08T05:28:21;14.80;99.90
7720;DHT22;3902;49.474;8.616;2023-08-08T05:30:46;14.80;99.90
7720;DHT22;3902;49.474;8.616;2023-08-08T05:33:12;14.80;99.90
7720;DHT22;3902;49.474;8.616;2023-08-08T05:35:37;14.80;99.90
7720;DHT22;3902;49.474;8.616;2023-08-08T05:38:03;14.80;99.90
7720;DHT22;3902;49.474;8.616;2023-08-08T05:40:28;14.80;99.90
7720;DHT22;3902;49.474;8.616;2023-08-08T05:42:54;14.90;99.90
7720;DHT22;3902;49.474;8.616;2023-08-08T05:45:20;14.90;99.90
7720;DHT22;3902;49.474;8.616;2023-08-08T05:47:45;14.90;99.90
7720;DHT22;3902;49.474;8.616;2023-08-08T05:50:11;15.00;99.90
7720;DHT22;3902;49.474;8.616;2023-08-08T05:52:36;15.00;99.90
7720;DHT22;3902;49.474;8.616;2023-08-08T05:55:02;15.00;99.90
7720;DHT22;3902;49.474;8.616;2023-08-08T05:57:28;15.00;99.90
7720;DHT22;3902;49.474;8.616;2023-08-08T05:59:53;15.10;99.90
7720;DHT22;3902;49.474;8.616;2023-08-08T06:02:19;15.10;99.90
7720;DHT22;3902;49.474;8.616;2023-08-08T06:04:44;15.10;99.90
7720;DHT22;3902;49.474;8.616;2023-08-08T06:07:10;15.10;99.90
7720;DHT22;3902;49.474;8.616;2023-08-08T06:09:36;15.10;99.90
7720;DHT22;3902;49.474;8.616;2023-08-08T06:12:03;15.10;99.90
7720;DHT22;3902;49.474;8.616;2023-08-08T06:14:30;15.00;99.90
7720;DHT22;3902;49.474;8.616;2023-08-08T06:16:55;15.10;99.90
7720;DHT22;3902;49.474;8.616;2023-08-08T06:19:21;15.10;99.90
7720;DHT22;3902;49.474;8.616;2023-08-08T06:21:46;15.10;99.90
7720;DHT22;3902;49.474;8.616;2023-08-08T06:24:12;15.10;99.90
7720;DHT22;3902;49.474;8.616;2023-08-08T06:26:38;15.10;99.90
7720;DHT22;3902;49.474;8.616;2023-08-08T06:29:03;15.20;99.90
7720;DHT22;3902;49.474;8.616;2023-08-08T06:31:29;15.20;99.90
7720;DHT22;3902;49.474;8.616;2023-08-08T06:33:55;15.30;99.90
7720;DHT22;3902;49.474;8.616;2023-08-08T06:36:20;15.30;99.90
7720;DHT22;3902;49.474;8.616;2023-08-08T06:38:46;15.40;99.90
7720;DHT22;3902;49.474;8.616;2023-08-08T06:41:11;15.40;99.90
7720;DHT22;3902;49.474;8.616;2023-08-08T06:43:37;15.40;99.90
7720;DHT22;3902;49.474;8.616;2023-08-08T06:46:03;15.40;99.90
7720;DHT22;3902;49.474;8.616;2023-08-08T06:48:28;15.40;99.90
7720;DHT22;3902;49.474;8.616;2023-08-08T06:50:54;15.50;99.90
7720;DHT22;3902;49.474;8.616;2023-08-08T06:53:20;15.50;99.90
7720;DHT22;3902;49.474;8.616;2023-08-08T06:55:45;15.50;99.90
7720;DHT22;3902;49.474;8.616;2023-08-08T06:58:11;15.60;99.90
7720;DHT22;3902;49.474;8.616;2023-08-08T07:00:36;15.60;99.90
7720;DHT22;3902;49.474;8.616;2023-08-08T07:03:02;15.60;99.90
7720;DHT22;3902;49.474;8.616;2023-08-08T07:05:27;15.60;99.90
7720;DHT22;3902;49.474;8.616;2023-08-08T07:07:53;15.70;99.90
7720;DHT22;3902;49.474;8.616;2023-08-08T07:10:19;15.70;99.90
7720;DHT22;3902;49.474;8.616;2023-08-08T07:12:45;15.80;99.90
7720;DHT22;3902;49.474;8.616;2023-08-08T07:15:11;15.80;99.90
7720;DHT22;3902;49.474;8.616;2023-08-08T07:18:00;15.90;99.90
7720;DHT22;3902;49.474;8.616;2023-08-08T07:20:25;15.90;99.90
7720;DHT22;3902;49.474;8.616;2023-08-08T07:22:51;16.00;99.90
7720;DHT22;3902;49.474;8.616;2023-08-08T07:25:16;16.00;99.90
7720;DHT22;3902;49.474;8.616;2023-08-08T07:27:42;16.10;99.90
7720;DHT22;3902;49.474;8.616;2023-08-08T07:30:07;16.20;99.90
7720;DHT22;3902;49.474;8.616;2023-08-08T07:32:34;16.20;99.90
7720;DHT22;3902;49.474;8.616;2023-08-08T07:34:59;16.20;99.90
7720;DHT22;3902;49.474;8.616;2023-08-08T07:37:27;16.20;99.90
7720;DHT22;3902;49.474;8.616;2023-08-08T07:39:53;16.30;99.90
7720;DHT22;3902;49.474;8.616;2023-08-08T07:42:18;16.40;99.90
7720;DHT22;3902;49.474;8.616;2023-08-08T07:44:44;16.40;99.90
7720;DHT22;3902;49.474;8.616;2023-08-08T07:47:09;16.50;99.90
7720;DHT22;3902;49.474;8.616;2023-08-08T07:49:35;16.60;99.90
7720;DHT22;3902;49.474;8.616;2023-08-08T07:52:00;16.60;99.90
7720;DHT22;3902;49.474;8.616;2023-08-08T07:54:26;16.60;99.90
7720;DHT22;3902;49.474;8.616;2023-08-08T07:56:51;16.70;99.90
7720;DHT22;3902;49.474;8.616;2023-08-08T07:59:17;16.80;99.90
7720;DHT22;3902;49.474;8.616;2023-08-08T08:01:42;16.90;99.90
7720;DHT22;3902;49.474;8.616;2023-08-08T08:04:08;17.10;99.90
7720;DHT22;3902;49.474;8.616;2023-08-08T08:06:34;17.10;99.90
7720;DHT22;3902;49.474;8.616;2023-08-08T08:08:59;17.20;99.90
7720;DHT22;3902;49.474;8.616;2023-08-08T08:11:25;17.20;99.90
7720;DHT22;3902;49.474;8.616;2023-08-08T08:13:50;17.30;99.90
7720;DHT22;3902;49.474;8.616;2023-08-08T08:16:16;17.30;99.90
7720;DHT22;3902;49.474;8.616;2023-08-08T08:18:41;17.30;99.90
7720;DHT22;3902;49.474;8.616;2023-08-08T08:21:09;17.30;99.90
7720;DHT22;3902;49.474;8.616;2023-08-08T08:23:35;17.40;99.90
7720;DHT22;3902;49.474;8.616;2023-08-08T08:26:00;17.40;99.90
7720;DHT22;3902;49.474;8.616;2023-08-08T08:28:26;17.50;99.90
7720;DHT22;3902;49.474;8.616;2023-08-08T08:30:52;17.60;99.90
7720;DHT22;3902;49.474;8.616;2023-08-08T08:33:17;17.70;99.90
7720;DHT22;3902;49.474;8.616;2023-08-08T08:35:43;17.60;99.90
7720;DHT22;3902;49.474;8.616;2023-08-08T08:38:09;17.70;99.90
7720;DHT22;3902;49.474;8.616;2023-08-08T08:40:38;17.70;99.90
7720;DHT22;3902;49.474;8.616;2023-08-08T08:43:05;17.80;99.90
7720;DHT22;3902;49.474;8.616;2023-08-08T08:45:32;17.90;99.90
7720;DHT22;3902;49.474;8.616;2023-08-08T08:48:01;17.90;99.90
7720;DHT22;3902;49.474;8.616;2023-08-08T08:50:27;17.90;99.90
7720;DHT22;3902;49.474;8.616;2023-08-08T08:52:55;17.90;99.90
7720;DHT22;3902;49.474;8.616;2023-08-08T08:55:22;18.00;99.90
7720;DHT22;3902;49.474;8.616;2023-08-08T08:57:49;18.00;99.90
7720;DHT22;3902;49.474;8.616;2023-08-08T09:00:15;18.10;99.90
7720;DHT22;3902;49.474;8.616;2023-08-08T09:02:41;18.10;99.90
7720;DHT22;3902;49.474;8.616;2023-08-08T09:05:07;18.20;99.90
7720;DHT22;3902;49.474;8.616;2023-08-08T09:07:33;18.20;99.90
7720;DHT22;3902;49.474;8.616;2023-08-08T09:09:59;18.20;99.90
7720;DHT22;3902;49.474;8.616;2023-08-08T09:12:25;18.30;99.90
7720;DHT22;3902;49.474;8.616;2023-08-08T09:14:55;18.40;99.90
7720;DHT22;3902;49.474;8.616;2023-08-08T09:17:27;18.40;99.90
7720;DHT22;3902;49.474;8.616;2023-08-08T09:19:54;18.50;99.90
7720;DHT22;3902;49.474;8.616;2023-08-08T09:22:24;18.50;99.90
7720;DHT22;3902;49.474;8.616;2023-08-08T09:24:50;18.50;99.90
7720;DHT22;3902;49.474;8.616;2023-08-08T09:27:16;18.60;99.90
7720;DHT22;3902;49.474;8.616;2023-08-08T09:29:42;18.70;99.90
7720;DHT22;3902;49.474;8.616;2023-08-08T09:32:08;18.70;99.90
7720;DHT22;3902;49.474;8.616;2023-08-08T09:34:34;18.80;99.90
7720;DHT22;3902;49.474;8.616;2023-08-08T09:36:59;18.80;99.90
7720;DHT22;3902;49.474;8.616;2023-08-08T09:39:26;18.80;99.90
7720;DHT22;3902;49.474;8.616;2023-08-08T09:41:51;18.90;99.90
7720;DHT22;3902;49.474;8.616;2023-08-08T09:44:17;18.90;99.90
7720;DHT22;3902;49.474;8.616;2023-08-08T09:46:43;18.90;99.90
7720;DHT22;3902;49.474;8.616;2023-08-08T09:49:10;19.00;99.90
7720;DHT22;3902;49.474;8.616;2023-08-08T09:51:37;19.20;99.90
7720;DHT22;3902;49.474;8.616;2023-08-08T09:54:04;19.20;99.90
7720;DHT22;3902;49.474;8.616;2023-08-08T09:56:32;19.30;99.90
7720;DHT22;3902;49.474;8.616;2023-08-08T09:59:00;19.50;99.90
7720;DHT22;3902;49.474;8.616;2023-08-08T10:01:27;19.50;99.90
7720;DHT22;3902;49.474;8.616;2023-08-08T10:03:52;19.70;99.90
7720;DHT22;3902;49.474;8.616;2023-08-08T10:06:18;19.70;99.90
7720;DHT22;3902;49.474;8.616;2023-08-08T10:08:45;19.70;99.90
7720;DHT22;3902;49.474;8.616;2023-08-08T10:11:12;19.70;99.90
7720;DHT22;3902;49.474;8.616;2023-08-08T10:13:38;19.90;99.90
7720;DHT22;3902;49.474;8.616;2023-08-08T10:16:11;19.80;99.90
7720;DHT22;3902;49.474;8.616;2023-08-08T10:18:37;19.90;99.90
7720;DHT22;3902;49.474;8.616;2023-08-08T10:21:06;19.90;99.90
7720;DHT22;3902;49.474;8.616;2023-08-08T10:23:37;20.00;99.90
7720;DHT22;3902;49.474;8.616;2023-08-08T10:26:03;20.00;99.90
7720;DHT22;3902;49.474;8.616;2023-08-08T10:28:28;20.00;99.90
7720;DHT22;3902;49.474;8.616;2023-08-08T10:30:59;20.00;99.90
7720;DHT22;3902;49.474;8.616;2023-08-08T10:33:26;20.10;99.90
7720;DHT22;3902;49.474;8.616;2023-08-08T10:36:02;20.10;99.90
7720;DHT22;3902;49.474;8.616;2023-08-08T10:38:44;20.10;99.90
7720;DHT22;3902;49.474;8.616;2023-08-08T10:41:15;20.20;99.90
7720;DHT22;3902;49.474;8.616;2023-08-08T10:43:57;20.20;99.90
7720;DHT22;3902;49.474;8.616;2023-08-08T10:46:30;20.20;99.90
7720;DHT22;3902;49.474;8.616;2023-08-08T10:48:58;20.30;99.90
7720;DHT22;3902;49.474;8.616;2023-08-08T10:51:40;20.40;99.90
7720;DHT22;3902;49.474;8.616;2023-08-08T10:54:24;20.50;99.90
7720;DHT22;3902;49.474;8.616;2023-08-08T10:56:57;20.60;99.90
7720;DHT22;3902;49.474;8.616;2023-08-08T10:59:36;20.80;99.90
7720;DHT22;3902;49.474;8.616;2023-08-08T11:02:03;20.90;99.90
7720;DHT22;3902;49.474;8.616;2023-08-08T11:04:29;21.10;99.90
7720;DHT22;3902;49.474;8.616;2023-08-08T11:06:56;21.20;99.90
7720;DHT22;3902;49.474;8.616;2023-08-08T11:09:22;21.40;99.90
7720;DHT22;3902;49.474;8.616;2023-08-08T11:11:48;21.50;99.90
7720;DHT22;3902;49.474;8.616;2023-08-08T11:14:16;21.70;99.90
7720;DHT22;3902;49.474;8.616;2023-08-08T11:16:43;21.80;99.90
7720;DHT22;3902;49.474;8.616;2023-08-08T11:19:11;21.70;99.90
7720;DHT22;3902;49.474;8.616;2023-08-08T11:21:42;21.80;99.90
7720;DHT22;3902;49.474;8.616;2023-08-08T11:24:09;21.80;99.90
7720;DHT22;3902;49.474;8.616;2023-08-08T11:26:35;21.70;99.90
7720;DHT22;3902;49.474;8.616;2023-08-08T11:29:03;21.70;99.90
7720;DHT22;3902;49.474;8.616;2023-08-08T11:31:30;21.60;99.90
7720;DHT22;3902;49.474;8.616;2023-08-08T11:33:56;21.70;99.90
7720;DHT22;3902;49.474;8.616;2023-08-08T11:36:23;21.70;99.90
7720;DHT22;3902;49.474;8.616;2023-08-08T11:38:50;21.80;99.90
7720;DHT22;3902;49.474;8.616;2023-08-08T11:41:17;22.00;99.90
7720;DHT22;3902;49.474;8.616;2023-08-08T11:43:45;21.90;99.90
7720;DHT22;3902;49.474;8.616;2023-08-08T11:46:14;21.90;99.90
7720;DHT22;3902;49.474;8.616;2023-08-08T11:48:41;21.90;99.90
7720;DHT22;3902;49.474;8.616;2023-08-08T11:51:08;21.90;99.90
7720;DHT22;3902;49.474;8.616;2023-08-08T11:53:35;22.00;99.90
7720;DHT22;3902;49.474;8.616;2023-08-08T11:56:03;22.00;99.90
7720;DHT22;3902;49.474;8.616;2023-08-08T11:58:29;22.20;99.90
7720;DHT22;3902;49.474;8.616;2023-08-08T12:00:56;22.20;99.90
7720;DHT22;3902;49.474;8.616;2023-08-08T12:03:24;22.30;99.90
7720;DHT22;3902;49.474;8.616;2023-08-08T12:05:51;22.30;99.90
7720;DHT22;3902;49.474;8.616;2023-08-08T12:08:20;22.40;99.90
7720;DHT22;3902;49.474;8.616;2023-08-08T12:10:49;22.50;99.90
7720;DHT22;3902;49.474;8.616;2023-08-08T12:13:20;22.70;99.90
7720;DHT22;3902;49.474;8.616;2023-08-08T12:15:46;22.70;99.90
7720;DHT22;3902;49.474;8.616;2023-08-08T12:18:16;22.90;99.90
7720;DHT22;3902;49.474;8.616;2023-08-08T12:20:42;22.90;99.90
7720;DHT22;3902;49.474;8.616;2023-08-08T12:23:08;23.10;99.90
7720;DHT22;3902;49.474;8.616;2023-08-08T12:25:33;23.30;99.90
7720;DHT22;3902;49.474;8.616;2023-08-08T12:27:59;23.40;99.90
7720;DHT22;3902;49.474;8.616;2023-08-08T12:30:24;23.20;99.90
7720;DHT22;3902;49.474;8.616;2023-08-08T12:32:50;23.20;99.90
7720;DHT22;3902;49.474;8.616;2023-08-08T12:35:15;23.20;99.90
7720;DHT22;3902;49.474;8.616;2023-08-08T12:37:42;23.20;99.90
7720;DHT22;3902;49.474;8.616;2023-08-08T12:40:08;23.20;99.50
7720;DHT22;3902;49.474;8.616;2023-08-08T12:42:33;23.10;98.40
7720;DHT22;3902;49.474;8.616;2023-08-08T12:44:59;23.10;99.00
7720;DHT22;3902;49.474;8.616;2023-08-08T12:47:24;23.10;99.00
7720;DHT22;3902;49.474;8.616;2023-08-08T12:49:50;23.00;97.50
7720;DHT22;3902;49.474;8.616;2023-08-08T12:52:15;22.90;97.40
7720;DHT22;3902;49.474;8.616;2023-08-08T12:54:41;23.00;98.10
7720;DHT22;3902;49.474;8.616;2023-08-08T12:57:06;23.00;97.90
7720;DHT22;3902;49.474;8.616;2023-08-08T12:59:32;23.20;97.60
7720;DHT22;3902;49.474;8.616;2023-08-08T13:01:57;23.20;97.60
7720;DHT22;3902;49.474;8.616;2023-08-08T13:04:23;23.30;96.90
7720;DHT22;3902;49.474;8.616;2023-08-08T13:06:49;23.30;96.70
7720;DHT22;3902;49.474;8.616;2023-08-08T13:09:14;23.30;96.70
7720;DHT22;3902;49.474;8.616;2023-08-08T13:11:41;23.50;96.50
7720;DHT22;3902;49.474;8.616;2023-08-08T13:14:07;23.60;95.90
7720;DHT22;3902;49.474;8.616;2023-08-08T13:16:32;23.70;95.70
7720;DHT22;3902;49.474;8.616;2023-08-08T13:18:58;23.80;95.00
7720;DHT22;3902;49.474;8.616;2023-08-08T13:21:23;23.80;94.60
7720;DHT22;3902;49.474;8.616;2023-08-08T13:23:49;23.70;93.80
7720;DHT22;3902;49.474;8.616;2023-08-08T13:26:15;23.60;94.60
7720;DHT22;3902;49.474;8.616;2023-08-08T13:28:40;23.60;94.70
7720;DHT22;3902;49.474;8.616;2023-08-08T13:31:06;23.60;95.20
7720;DHT22;3902;49.474;8.616;2023-08-08T13:33:32;23.40;94.60
7720;DHT22;3902;49.474;8.616;2023-08-08T13:35:59;23.50;95.40
7720;DHT22;3902;49.474;8.616;2023-08-08T13:38:25;23.30;95.50
7720;DHT22;3902;49.474;8.616;2023-08-08T13:40:50;23.20;95.40
7720;DHT22;3902;49.474;8.616;2023-08-08T13:43:16;23.30;96.10
7720;DHT22;3902;49.474;8.616;2023-08-08T13:45:41;23.40;96.30
7720;DHT22;3902;49.474;8.616;2023-08-08T13:48:07;23.40;95.50
7720;DHT22;3902;49.474;8.616;2023-08-08T13:50:32;23.50;94.90
7720;DHT22;3902;49.474;8.616;2023-08-08T13:52:58;23.50;95.50
7720;DHT22;3902;49.474;8.616;2023-08-08T13:55:24;23.40;94.80
7720;DHT22;3902;49.474;8.616;2023-08-08T13:57:51;23.30;96.00
7720;DHT22;3902;49.474;8.616;2023-08-08T14:00:16;23.40;96.00
7720;DHT22;3902;49.474;8.616;2023-08-08T14:02:42;23.40;96.60
7720;DHT22;3902;49.474;8.616;2023-08-08T14:05:07;23.50;95.30
7720;DHT22;3902;49.474;8.616;2023-08-08T14:07:34;23.50;96.20
7720;DHT22;3902;49.474;8.616;2023-08-08T14:10:00;23.70;95.90
7720;DHT22;3902;49.474;8.616;2023-08-08T14:12:26;23.80;96.10
7720;DHT22;3902;49.474;8.616;2023-08-08T14:14:51;23.70;96.50
7720;DHT22;3902;49.474;8.616;2023-08-08T14:17:17;23.70;95.70
7720;DHT22;3902;49.474;8.616;2023-08-08T14:19:42;23.60;96.50
7720;DHT22;3902;49.474;8.616;2023-08-08T14:22:08;23.50;95.90
7720;DHT22;3902;49.474;8.616;2023-08-08T14:24:33;23.50;96.90
7720;DHT22;3902;49.474;8.616;2023-08-08T14:26:59;23.60;96.80
7720;DHT22;3902;49.474;8.616;2023-08-08T14:29:24;23.40;96.10
7720;DHT22;3902;49.474;8.616;2023-08-08T14:31:50;23.40;96.30
7720;DHT22;3902;49.474;8.616;2023-08-08T14:34:15;23.40;96.20
7720;DHT22;3902;49.474;8.616;2023-08-08T14:36:41;23.30;96.40
7720;DHT22;3902;49.474;8.616;2023-08-08T14:39:07;23.20;95.90
7720;DHT22;3902;49.474;8.616;2023-08-08T14:41:32;23.20;96.40
7720;DHT22;3902;49.474;8.616;2023-08-08T14:43:58;23.30;96.90
7720;DHT22;3902;49.474;8.616;2023-08-08T14:46:23;23.20;96.50
7720;DHT22;3902;49.474;8.616;2023-08-08T14:48:49;23.30;97.20
7720;DHT22;3902;49.474;8.616;2023-08-08T14:51:15;23.30;97.20
7720;DHT22;3902;49.474;8.616;2023-08-08T14:53:42;23.10;96.70
7720;DHT22;3902;49.474;8.616;2023-08-08T14:56:08;23.00;96.90
7720;DHT22;3902;49.474;8.616;2023-08-08T14:58:34;22.90;97.20
7720;DHT22;3902;49.474;8.616;2023-08-08T15:01:01;22.70;97.30
7720;DHT22;3902;49.474;8.616;2023-08-08T15:03:26;22.50;96.80
7720;DHT22;3902;49.474;8.616;2023-08-08T15:05:52;22.50;97.60
7720;DHT22;3902;49.474;8.616;2023-08-08T15:08:17;22.40;97.30
7720;DHT22;3902;49.474;8.616;2023-08-08T15:10:44;22.30;97.90
7720;DHT22;3902;49.474;8.616;2023-08-08T15:13:09;22.20;98.00
7720;DHT22;3902;49.474;8.616;2023-08-08T15:15:35;22.20;98.10
7720;DHT22;3902;49.474;8.616;2023-08-08T15:18:00;22.10;98.40
7720;DHT22;3902;49.474;8.616;2023-08-08T15:20:26;22.10;98.90
7720;DHT22;3902;49.474;8.616;2023-08-08T15:22:51;22.00;99.30
7720;DHT22;3902;49.474;8.616;2023-08-08T15:25:17;21.90;99.20
7720;DHT22;3902;49.474;8.616;2023-08-08T15:27:43;21.80;99.40
7720;DHT22;3902;49.474;8.616;2023-08-08T15:30:09;21.80;99.50
7720;DHT22;3902;49.474;8.616;2023-08-08T15:32:34;21.70;99.80
7720;DHT22;3902;49.474;8.616;2023-08-08T15:35:00;21.70;99.90
7720;DHT22;3902;49.474;8.616;2023-08-08T15:37:25;21.70;99.90
7720;DHT22;3902;49.474;8.616;2023-08-08T15:39:51;21.70;99.90
7720;DHT22;3902;49.474;8.616;2023-08-08T15:42:16;21.80;99.90
7720;DHT22;3902;49.474;8.616;2023-08-08T15:44:42;21.80;99.90
7720;DHT22;3902;49.474;8.616;2023-08-08T15:47:07;21.80;99.90
7720;DHT22;3902;49.474;8.616;2023-08-08T15:49:36;21.80;99.90
7720;DHT22;3902;49.474;8.616;2023-08-08T15:52:02;21.90;99.90
7720;DHT22;3902;49.474;8.616;2023-08-08T15:54:28;22.00;99.90
7720;DHT22;3902;49.474;8.616;2023-08-08T15:56:53;22.00;99.90